Flight Number: EUR2019 Duration: 1:45
Departure: Munich Int'l (EDDM) at 07:30 Distance: 634 Nm
Arrival: Bucharest Otopeni (LROP) at 09:15 Equipment: B737

Weather Information
Munchen, Germany (EDDM) 48-21N 011-47E Jan 21, 2019 - 06:50 AM EST / 2019.01.21 1150 UTC
Wind: from the NE (050 degrees) at 5 MPH (4 KT) (direction variable):0
Visibility: greater than 7 mile(s):0
Sky conditions: mostly clear Temperature: 26 F (-3 C)
Windchill: 19 F (-7 C):1 Dew Point: 23 F (-5 C) Relative Humidity: 86% Pressure (altimeter): 30.09 in. Hg (1019 hPa)
ob: EDDM 211150Z 05004KT 010V120 9999 FEW012 M03/M05 Q1019 NOSIG cycle: 12
Sunrise: 06:57 Sunset: 15:50 (UTC)

Bucuresti Otopeni, Romania (LROP) 44-33N 026-06E 95M Jan 21, 2019 - 07:00 AM EST / 2019.01.21 1200 UTC
Wind: from the SE (140 degrees) at 10 MPH (9 KT):0
Visibility: 5 mile(s):0
Sky conditions: overcast Temperature: 35 F (2 C)
Windchill: 26 F (-3 C):1 Dew Point: 33 F (1 C) Relative Humidity: 93% Pressure (altimeter): 30.15 in. Hg (1021 hPa)
ob: LROP 211200Z 14009KT 9000 BKN011 OVC019 02/01 Q1021 R88/19//95 NOSIG cycle: 12
Sunrise: 05:48 Sunset: 15:05 (UTC)

TAF:2019/01/21 12:33 TAF LROP 211100Z 2112/2212 13010KT 7000 BKN010 TEMPO 2114/2118 SCT020 BECMG 2120/2122 5000 BR TEMPO 2201/2206 3000 BR PROB30 TEMPO 2203/2207 1500 BR VV002 TEMPO 2207/2212 3000 -SN BR BKN005 BKN035

Previous Pireps for this route
Date Aircraft Flight time Fuel used Landing rate On time
2012-08-13B73702.02-22-867No
2013-05-25B7371.40100000No
2013-05-27B73702.0010281-119No
2013-05-29B7371.3696000No
2013-07-17B7371.39103000No
2013-08-03B73702.1621692-898No
2013-10-22A3211.45260000No
2013-12-22B73702.2721792-245No
2014-03-12B7371.4497220No
2014-07-17B7371.5110143-249No
2014-09-23B73701.5010119-164Yes
2016-05-08B73701.3711857-134Charter
2016-05-14B73702.0810264-208Yes
2016-06-30B73702.061050451Yes
(pireps marked green are flown by you)

Route map